Latest Weather Observations for Adelaide Airport

IDS60901

Issued at 1:01 pm CDT Wednesday 10 February 2016 (issued every 10 minutes, with the page automatically refreshed every 10 minutes)

About weather observations | Map of Adelaide area stations | Latest observations for Adelaide area | Other Formats
Station Details ID: 023034 Name: ADELAIDE AIRPORT Lat: -34.95 Lon: 138.52 Height: 2.0 m
Data from the previous 72 hours. | See also: Recent months at Adelaide Airport
Date/Time
CDT
Tmp

°C
App
Tmp
°C
Dew
Point
°C
Rel
Hum
%
Delta-T

°C
Wind Press
QNH
hPa
Press
MSL
hPa
Rain
since
9 am
mm
Dir
 
Spd
km/h
Gust
km/h
Spd
kts
Gust
kts
10/12:30pm 29.5 28.0 14.2 39 9.2 W 15 20 8 11 1014.0 1014.0 0.0
10/12:00pm 29.5 26.9 6.3 23 12.3 NNE 9 11 5 6 1014.4 1014.4 0.0
10/11:30am 28.9 26.5 7.0 25 11.7 S 9 13 5 7 1014.7 1014.7 0.0
10/11:00am 27.7 25.5 6.4 26 11.2 SW 7 11 4 6 1015.1 1015.1 0.0
10/10:30am 25.2 23.6 11.4 42 7.8 WSW 11 15 6 8 1015.3 1015.3 0.0
10/10:00am 23.7 21.4 10.5 43 7.3 WSW 13 19 7 10 1015.2 1015.2 0.0
10/09:30am 24.3 21.7 7.6 34 8.8 W 11 13 6 7 1015.2 1015.2 0.0
10/09:00am 23.6 21.5 5.9 32 9.0 WNW 6 9 3 5 1015.0 1015.0 0.0
10/08:30am 22.5 21.5 5.8 34 8.4 CALM 0 0 0 0 1015.1 1015.1 0.0
10/08:00am 20.6 19.3 9.8 50 5.8 SE 7 7 4 4 1015.0 1015.0 0.0
10/07:30am 17.9 17.5 8.1 52 5.0 CALM 0 0 0 0 1014.5 1014.5 0.0
10/07:00am 16.2 14.5 8.3 59 4.0 S 7 7 4 4 1014.4 1014.4 0.0
10/06:30am 16.5 15.9 7.5 55 4.5 CALM 0 0 0 0 1014.1 1014.1 0.0
10/06:00am 16.2 15.8 8.3 59 4.0 CALM 0 0 0 0 1013.8 1013.8 0.0
10/05:30am 18.0 16.2 7.3 49 5.4 NNE 6 7 3 4 1013.7 1013.7 0.0
10/05:00am 18.8 16.3 6.6 45 6.1 NE 9 9 5 5 1013.6 1013.6 0.0
10/04:30am 18.7 16.2 6.7 45 6.0 NE 9 11 5 6 1013.6 1013.6 0.0
10/04:00am 18.8 15.2 5.2 40 6.6 SE 13 15 7 8 1013.7 1013.7 0.0
10/03:30am 19.4 16.9 5.0 38 7.0 SSE 7 9 4 5 1013.8 1013.8 0.0
10/03:00am 19.2 17.2 6.1 42 6.5 SSW 6 7 3 4 1013.7 1013.7 0.0
10/02:30am 19.5 17.4 6.5 42 6.5 WSW 7 9 4 5 1013.9 1013.9 0.0
10/02:00am 19.0 17.2 5.5 41 6.6 SSW 4 7 2 4 1014.1 1014.1 0.0
10/01:30am 19.1 18.1 5.4 40 6.7 CALM 0 0 0 0 1014.2 1014.2 0.0
10/01:00am 19.4 16.1 4.4 37 7.2 ESE 11 13 6 7 1014.5 1014.5 0.0
10/12:30am 20.4 16.2 3.6 33 8.0 SE 15 19 8 10 1014.9 1014.9 0.0
10/12:00am 21.7 16.9 2.6 28 9.0 SSE 17 22 9 12 1015.0 1015.0 0.0
 
Date/Time
CDT
Tmp

°C
App
Tmp
°C
Dew
Point
°C
Rel
Hum
%
Delta-T

°C
Wind Press
QNH
hPa
Press
MSL
hPa
Rain
since
9 am
mm
Dir
 
Spd
km/h
Gust
km/h
Spd
kts
Gust
kts
09/11:30pm 21.8 17.8 2.8 28 9.0 SSE 13 15 7 8 1015.0 1015.0 0.0
09/11:00pm 21.9 18.2 2.6 28 9.1 SE 11 13 6 7 1015.2 1015.2 0.0
09/10:30pm 23.0 19.0 2.6 26 9.7 SE 13 15 7 8 1015.1 1015.1 0.0
09/10:00pm 23.5 19.4 6.3 33 8.8 SE 17 20 9 11 1015.2 1015.2 0.0
09/09:30pm 24.6 20.6 6.7 31 9.3 SE 17 22 9 12 1015.0 1015.0 0.0
09/09:00pm 25.6 21.5 4.4 25 10.6 SE 15 20 8 11 1014.9 1014.9 0.0
09/08:30pm 26.5 22.5 6.7 28 10.4 SE 17 26 9 14 1014.8 1014.8 0.0
09/08:00pm 27.7 24.2 8.7 30 10.4 SE 17 26 9 14 1014.7 1014.7 0.0
09/07:30pm 28.9 25.5 10.6 32 10.4 SSE 19 26 10 14 1014.7 1014.7 0.0
09/07:00pm 30.0 26.2 12.5 34 10.3 SE 24 30 13 16 1014.5 1014.5 0.0
09/06:30pm 31.3 27.4 13.2 33 10.8 SE 26 30 14 16 1014.2 1014.2 0.0
09/06:00pm 29.5 28.5 17.5 48 7.6 SW 19 24 10 13 1014.2 1014.2 0.0
09/05:30pm 28.2 25.9 16.6 49 7.2 SW 24 30 13 16 1014.5 1014.5 0.0
09/05:00pm 27.2 24.8 17.3 54 6.2 SSW 26 33 14 18 1015.0 1015.0 0.0
09/04:30pm 27.5 24.1 15.9 49 7.1 SSW 28 33 15 18 1015.3 1015.3 0.0
09/04:00pm 28.4 25.3 15.7 46 7.8 SSW 26 30 14 16 1015.5 1015.5 0.0
09/03:30pm 27.1 24.3 17.4 55 6.1 SSW 28 35 15 19 1015.9 1015.9 0.0
09/03:00pm 25.8 22.4 17.8 61 5.0 SW 32 35 17 19 1016.3 1016.3 0.0
09/02:30pm 26.0 23.2 16.4 55 5.9 SSW 26 33 14 18 1016.5 1016.5 0.0
09/02:00pm 26.5 23.4 15.5 50 6.7 SW 26 32 14 17 1016.9 1016.9 0.0
09/01:30pm 26.4 24.0 15.3 50 6.7 SW 22 30 12 16 1017.2 1017.2 0.0
09/01:00pm 27.1 24.7 14.4 45 7.6 SW 20 28 11 15 1017.5 1017.5 0.0
09/12:30pm 25.7 22.9 12.7 44 7.5 WSW 19 24 10 13 1017.9 1017.9 0.0
09/12:00pm 25.6 23.1 11.0 40 8.2 SSW 15 19 8 10 1018.2 1018.2 0.0
09/11:30am 25.2 23.2 11.6 42 7.7 SW 13 19 7 10 1018.6 1018.6 0.0
09/11:00am 24.1 22.4 12.4 48 6.7 WSW 13 17 7 9 1019.1 1019.1 0.0
09/10:30am 23.6 23.0 13.4 52 5.9 WSW 9 15 5 8 1019.3 1019.3 0.0
09/10:00am 22.9 22.4 13.8 56 5.3 WSW 9 13 5 7 1019.4 1019.4 0.0
09/09:30am 22.6 22.3 14.4 60 4.8 WSW 9 15 5 8 1019.6 1019.6 0.0
09/09:00am 22.3 22.4 14.5 61 4.6 W 7 9 4 5 1019.6 1019.6 0.0
09/08:30am 21.2 21.0 13.7 62 4.3 NW 7 9 4 5 1019.5 1019.5 0.0
09/08:00am 19.8 19.4 14.1 69 3.3 NNE 9 11 5 6 1019.3 1019.3 0.0
09/07:30am 17.2 16.1 13.1 77 2.3 NNE 11 13 6 7 1019.1 1019.1 0.0
09/07:00am 15.9 14.3 11.6 75 2.3 NE 11 13 6 7 1019.0 1019.0 0.0
09/06:30am 16.2 16.7 11.6 74 2.5 CALM 0 0 0 0 1018.8 1018.8 0.0
09/06:00am 15.8 16.0 11.7 76 2.2 S 2 6 1 3 1018.6 1018.6 0.0
09/05:30am 15.7 14.7 12.2 80 1.9 WSW 9 11 5 6 1018.6 1018.6 0.0
09/05:00am 16.5 15.3 11.7 73 2.6 W 9 9 5 5 1018.5 1018.5 0.0
09/04:30am 16.5 16.0 11.9 74 2.5 W 6 7 3 4 1018.7 1018.7 0.0
09/04:00am 17.2 16.1 11.9 71 2.9 NNW 9 11 5 6 1018.7 1018.7 0.0
09/03:30am 16.4 16.6 11.8 74 2.5 NW 2 7 1 4 1018.7 1018.7 0.0
09/03:00am 16.5 17.1 11.9 74 2.5 CALM 0 4 0 2 1018.7 1018.7 0.0
09/02:30am 19.7 19.0 11.5 59 4.5 NE 6 7 3 4 1018.9 1018.9 0.0
09/02:00am 19.7 18.9 11.7 60 4.4 E 7 11 4 6 1019.1 1019.1 0.0
09/01:30am 19.2 17.2 11.5 61 4.2 SSE 13 17 7 9 1019.5 1019.5 0.0
09/01:00am 18.7 16.8 11.8 64 3.8 SE 13 19 7 10 1019.7 1019.7 0.0
09/12:30am 18.7 15.8 12.4 67 3.5 ESE 19 26 10 14 1020.0 1020.0 0.0
09/12:00am 18.3 16.3 12.7 70 3.1 SE 15 20 8 11 1020.2 1020.2 0.0
 
Date/Time
CDT
Tmp

°C
App
Tmp
°C
Dew
Point
°C
Rel
Hum
%
Delta-T

°C
Wind Press
QNH
hPa
Press
MSL
hPa
Rain
since
9 am
mm
Dir
 
Spd
km/h
Gust
km/h
Spd
kts
Gust
kts
08/11:30pm 18.6 17.7 12.7 68 3.3 SSE 9 11 5 6 1020.3 1020.3 0.0
08/11:00pm 18.7 16.6 12.4 67 3.5 SE 15 19 8 10 1020.5 1020.5 0.0
08/10:30pm 18.8 16.7 12.3 66 3.6 SSE 15 20 8 11 1020.4 1020.4 0.0
08/10:00pm 18.9 17.4 12.0 64 3.8 SSE 11 20 6 11 1020.4 1020.4 0.0
08/09:30pm 19.4 16.3 11.6 60 4.3 SSE 19 30 10 16 1020.2 1020.2 0.0
08/09:00pm 19.9 16.1 11.3 57 4.7 SSE 22 35 12 19 1019.9 1019.9 0.0
08/08:30pm 20.7 17.4 11.7 56 5.0 SE 20 32 11 17 1019.8 1019.8 0.0
08/08:00pm 21.6 17.2 11.7 53 5.5 SSE 26 33 14 18 1019.7 1019.7 0.0
08/07:30pm 22.7 17.7 10.9 47 6.5 SE 28 37 15 20 1019.4 1019.4 0.0
08/07:00pm 23.7 17.5 10.2 42 7.4 SE 33 43 18 23 1019.2 1019.2 0.0
08/06:30pm 24.4 18.2 10.2 40 7.8 SE 33 46 18 25 1019.1 1019.1 0.0
08/06:00pm 24.9 18.9 10.2 39 8.1 SE 32 39 17 21 1019.2 1019.2 0.0
08/05:30pm 25.5 19.9 10.1 38 8.5 SE 30 37 16 20 1019.2 1019.2 0.0
08/05:00pm 26.4 20.2 9.2 33 9.4 SSE 32 41 17 22 1019.3 1019.3 0.0
08/04:30pm 27.0 21.0 8.6 31 10.0 SSE 30 39 16 21 1019.6 1019.6 0.0
08/04:00pm 26.8 21.1 8.2 31 10.0 SSE 28 35 15 19 1019.7 1019.7 0.0
08/03:30pm 27.0 21.5 10.4 35 9.3 SSE 30 37 16 20 1019.9 1019.9 0.0
08/03:00pm 27.3 22.1 10.3 34 9.5 SSE 28 33 15 18 1020.1 1020.1 0.0
08/02:30pm 27.0 22.4 10.9 36 9.1 SSE 26 35 14 19 1020.4 1020.4 0.0
08/02:00pm 27.0 22.4 11.1 37 9.0 S 26 37 14 20 1020.5 1020.5 0.0
08/01:30pm 27.7 24.5 11.9 37 9.1 SSE 20 30 11 16 1020.7 1020.7 0.0
08/01:00pm 26.0 22.0 10.4 37 8.7 SSE 22 32 12 17 1020.9 1020.9 0.0
08/12:30pm 26.6 23.3 11.7 39 8.5 S 20 32 11 17 1021.2 1021.2 0.0
08/12:00pm 24.8 21.9 12.4 46 7.1 SE 19 26 10 14 1021.5 1021.5 0.0
08/11:30am 23.9 20.8 12.1 47 6.7 SSE 20 32 11 17 1021.7 1021.7 0.0
08/11:00am 22.8 19.0 12.4 52 5.9 SE 24 32 13 17 1022.0 1022.0 0.0
08/10:30am 22.5 18.9 12.9 54 5.5 SE 24 30 13 16 1022.1 1022.1 0.0
08/10:00am 21.5 18.2 12.7 57 5.0 SE 22 30 12 16 1022.2 1022.2 0.0
08/09:30am 20.9 18.8 12.5 58 4.7 SE 15 22 8 12 1022.2 1022.2 0.0
08/09:00am 20.0 17.9 12.5 62 4.2 SE 15 19 8 10 1022.2 1022.2 0.0
08/08:30am 19.6 18.3 12.4 63 4.0 ESE 11 15 6 8 1022.1 1022.1 0.0
08/08:00am 18.6 16.8 12.1 66 3.6 ESE 13 15 7 8 1021.8 1021.8 0.0
08/07:30am 17.6 16.6 12.3 71 2.9 ESE 9 11 5 6 1021.5 1021.5 0.0
08/07:00am 16.3 15.2 11.9 75 2.4 ESE 9 11 5 6 1021.2 1021.2 0.0
08/06:30am 15.8 14.6 11.5 75 2.3 SE 9 11 5 6 1020.9 1020.9 0.0
08/06:00am 16.3 14.4 11.7 74 2.5 SE 13 17 7 9 1020.5 1020.5 0.0
08/05:30am 16.5 13.9 11.9 74 2.5 SE 17 24 9 13 1020.3 1020.3 0.0
08/05:00am 16.6 13.4 12.0 74 2.5 SE 20 26 11 14 1020.1 1020.1 0.0
08/04:30am 16.8 13.6 12.0 73 2.6 ESE 20 28 11 15 1020.0 1020.0 0.0
08/04:00am 16.9 14.0 12.2 74 2.6 SE 19 28 10 15 1020.0 1020.0 0.0
08/03:30am 16.8 14.3 12.2 74 2.5 SE 17 26 9 14 1019.9 1019.9 0.0
08/03:00am 17.3 14.8 12.4 73 2.7 SE 17 24 9 13 1019.9 1019.9 0.0
08/02:30am 17.2 14.4 12.7 75 2.5 SE 19 24 10 13 1020.0 1020.0 0.0
08/02:00am 17.6 14.8 12.5 72 2.8 SE 19 26 10 14 1020.2 1020.2 0.0
08/01:30am 17.9 15.0 12.9 72 2.8 SE 20 28 11 15 1020.4 1020.4 0.0
08/01:00am 18.2 15.9 13.0 71 2.9 SE 17 26 9 14 1020.4 1020.4 0.0
08/12:30am 18.2 16.4 13.4 73 2.7 SSE 15 20 8 11 1020.4 1020.4 0.0
08/12:00am 18.5 16.6 13.0 70 3.1 SSE 15 20 8 11 1020.3 1020.3 0.0
 
Date/Time
CDT
Tmp

°C
App
Tmp
°C
Dew
Point
°C
Rel
Hum
%
Delta-T

°C
Wind Press
QNH
hPa
Press
MSL
hPa
Rain
since
9 am
mm
Dir
 
Spd
km/h
Gust
km/h
Spd
kts
Gust
kts
07/11:30pm 18.4 16.6 13.3 72 2.9 SE 15 20 8 11 1020.1 1020.1 0.0
07/11:00pm 18.8 16.0 13.1 69 3.2 SE 20 28 11 15 1020.0 1020.0 0.0
07/10:30pm 18.8 15.3 13.3 70 3.1 SE 24 32 13 17 1019.9 1019.9 0.0
07/10:00pm 19.0 15.1 13.3 69 3.2 SE 26 33 14 18 1019.7 1019.7 0.0
07/09:30pm 19.4 16.0 13.6 69 3.3 SSE 24 32 13 17 1019.2 1019.2 0.0
07/09:00pm 20.6 17.6 13.8 65 3.9 SSE 22 32 12 17 1018.7 1018.7 0.0
07/08:30pm 22.5 19.7 14.3 59 4.8 SSE 22 28 12 15 1018.1 1018.1 0.0
07/08:00pm 24.4 22.4 15.0 55 5.6 S 19 24 10 13 1017.6 1017.6 0.0
07/07:30pm 26.5 24.1 15.3 50 6.8 SSE 22 30 12 16 1017.1 1017.1 0.0
07/07:00pm 25.7 24.5 17.5 60 5.1 SW 20 28 11 15 1016.6 1016.6 0.0
07/06:30pm 25.2 21.3 16.4 58 5.4 SW 32 37 17 20 1016.4 1016.4 0.0
07/06:00pm 25.3 21.7 17.3 61 5.0 SW 32 39 17 21 1016.4 1016.4 0.0
07/05:30pm 25.9 22.2 17.0 58 5.5 SW 32 39 17 21 1016.4 1016.4 0.0
07/05:00pm 26.3 23.3 17.7 59 5.4 SW 30 39 16 21 1016.4 1016.4 0.0
07/04:30pm 27.2 24.6 17.9 56 5.9 SW 28 39 15 21 1016.5 1016.5 0.0
07/04:00pm 27.1 23.8 17.9 57 5.8 SW 32 39 17 21 1016.6 1016.6 0.0
07/03:30pm 26.7 23.8 18.0 59 5.5 SW 30 37 16 20 1016.6 1016.6 0.0
07/03:00pm 25.6 22.3 18.0 63 4.8 SW 32 37 17 20 1016.7 1016.7 0.0
07/02:30pm 24.9 21.9 17.7 64 4.5 SW 30 35 16 19 1017.0 1017.0 0.0
07/02:00pm 26.0 22.2 17.3 58 5.4 SW 33 39 18 21 1017.2 1017.2 0.0
07/01:30pm 24.9 21.7 17.3 62 4.7 SW 30 35 16 19 1017.4 1017.4 0.0

Latest Capital City Observations: Canberra | Sydney | Melbourne | Brisbane | Adelaide | Perth | Hobart | Darwin

Other Formats:

Comma delimited format used in spreadsheet applications
http://www.bom.gov.au/fwo/IDS60901/IDS60901.94672.axf

JavaScript Object Notation format (JSON) in row-major order
http://www.bom.gov.au/fwo/IDS60901/IDS60901.94672.json